YBMK

Details ICAO YBMK (MKY)
Name Mackay
Region Australia
Timezone Australia/Brisbane (UTC+10.0)
Plans Departing 20
Arriving 29
Stats Elevation 18 ft / 5 m (AMSL)
Location -21.171614° 149.181130°
Runways 2
Magnetic Variation 8.382° E
Sunrise 2017-12-17 19:18:32 UTC / 2017-12-18 05:18:32 Local
Sunset 2017-12-18 08:43:33 UTC / 2017-12-18 18:43:33 Local
Advertisement - Login to hide

Runways

ID Width Length Bearing (true) Bearing (mag) Surface Threshold Offset Overrun Length
05 98 ft / 30 m 4,411 ft / 1,344 m 57.80° 49.42° Asphalt 194 ft / 59 m 0 ft / 0 m
14 148 ft / 45 m 6,516 ft / 1,986 m 147.90° 139.52° Asphalt 0 ft / 0 m 0 ft / 0 m
23 98 ft / 30 m 4,411 ft / 1,344 m 237.80° 229.42° Asphalt 0 ft / 0 m 0 ft / 0 m
32 148 ft / 45 m 6,516 ft / 1,986 m 327.90° 319.52° Asphalt 0 ft / 0 m 0 ft / 0 m

Map

Weather


0- 5 10 15 20 25 30 35+ Temperature / ° C

Clouds and Precipitation
Forecast for 2017-12-18 06:00 UTC. Updated 39 minutes ago

Ground ~20,000 ft ~40,000 ft Winds

METAR

YBMK 180300Z AUTO 09015KT 9999 // SCT029 30/20 Q1011

TAF

Not found

Frequencies

Recorded 128.00 MHz YBMK ATIS
Unicom 124.50 MHz MACKAY MULT
Tower 135.50 MHz BRISBANE CNTR
Unicom 119.60 MHz ACTIVATE LIGHTS ONLY MULT
Tower 124.50 MHz MACKAY TWR
Warning: Do not use this data for real-world aviation or navigation. No guarantee of current accuracy is given.